sensor_id;sensor_type;location;lat;lon;timestamp;P1;durP1;ratioP1;P2;durP2;ratioP2
14883;SDS011;7534;50.762;7.000;2022-09-27T00:00:23;4.97;;;3.63;;
14883;SDS011;7534;50.762;7.000;2022-09-27T00:02:48;5.67;;;3.70;;
14883;SDS011;7534;50.762;7.000;2022-09-27T00:05:15;4.90;;;2.73;;
14883;SDS011;7534;50.762;7.000;2022-09-27T00:07:42;3.60;;;2.90;;
14883;SDS011;7534;50.762;7.000;2022-09-27T00:10:09;2.50;;;2.30;;
14883;SDS011;7534;50.762;7.000;2022-09-27T00:12:35;2.60;;;2.23;;
14883;SDS011;7534;50.762;7.000;2022-09-27T00:15:05;3.70;;;2.20;;
14883;SDS011;7534;50.762;7.000;2022-09-27T00:17:34;3.37;;;2.00;;
14883;SDS011;7534;50.762;7.000;2022-09-27T00:20:01;2.20;;;2.00;;
14883;SDS011;7534;50.762;7.000;2022-09-27T00:22:32;4.93;;;1.90;;
14883;SDS011;7534;50.762;7.000;2022-09-27T00:24:58;2.93;;;1.87;;
14883;SDS011;7534;50.762;7.000;2022-09-27T00:27:24;3.20;;;1.97;;
14883;SDS011;7534;50.762;7.000;2022-09-27T00:29:54;2.43;;;2.23;;
14883;SDS011;7534;50.762;7.000;2022-09-27T00:32:20;2.93;;;2.10;;
14883;SDS011;7534;50.762;7.000;2022-09-27T00:34:49;3.70;;;2.50;;
14883;SDS011;7534;50.762;7.000;2022-09-27T00:37:17;5.30;;;2.83;;
14883;SDS011;7534;50.762;7.000;2022-09-27T00:39:43;5.57;;;2.90;;
14883;SDS011;7534;50.762;7.000;2022-09-27T00:42:09;2.90;;;2.30;;
14883;SDS011;7534;50.762;7.000;2022-09-27T00:49:50;3.63;;;2.53;;
14883;SDS011;7534;50.762;7.000;2022-09-27T00:55:24;5.07;;;3.03;;
14883;SDS011;7534;50.762;7.000;2022-09-27T00:57:55;4.13;;;2.90;;
14883;SDS011;7534;50.762;7.000;2022-09-27T01:00:21;5.47;;;3.17;;
14883;SDS011;7534;50.762;7.000;2022-09-27T01:02:50;4.27;;;2.40;;
14883;SDS011;7534;50.762;7.000;2022-09-27T01:05:20;3.60;;;2.30;;
14883;SDS011;7534;50.762;7.000;2022-09-27T01:07:51;2.93;;;1.97;;
14883;SDS011;7534;50.762;7.000;2022-09-27T01:10:20;3.00;;;1.70;;
14883;SDS011;7534;50.762;7.000;2022-09-27T01:16:00;3.20;;;1.57;;
14883;SDS011;7534;50.762;7.000;2022-09-27T01:24:27;3.43;;;1.50;;
14883;SDS011;7534;50.762;7.000;2022-09-27T01:27:30;2.63;;;1.73;;
14883;SDS011;7534;50.762;7.000;2022-09-27T01:33:36;2.90;;;1.60;;
14883;SDS011;7534;50.762;7.000;2022-09-27T01:36:17;3.87;;;1.80;;
14883;SDS011;7534;50.762;7.000;2022-09-27T01:39:31;2.83;;;1.60;;
14883;SDS011;7534;50.762;7.000;2022-09-27T01:45:22;2.27;;;1.60;;
14883;SDS011;7534;50.762;7.000;2022-09-27T01:48:03;5.10;;;1.80;;
14883;SDS011;7534;50.762;7.000;2022-09-27T01:51:24;2.20;;;1.57;;
14883;SDS011;7534;50.762;7.000;2022-09-27T01:53:57;3.37;;;1.90;;
14883;SDS011;7534;50.762;7.000;2022-09-27T01:56:39;2.53;;;1.90;;
14883;SDS011;7534;50.762;7.000;2022-09-27T01:59:23;3.13;;;2.07;;
14883;SDS011;7534;50.762;7.000;2022-09-27T02:01:58;4.20;;;2.27;;
14883;SDS011;7534;50.762;7.000;2022-09-27T02:04:31;3.90;;;2.37;;
14883;SDS011;7534;50.762;7.000;2022-09-27T02:07:04;3.87;;;2.43;;
14883;SDS011;7534;50.762;7.000;2022-09-27T02:09:41;5.20;;;2.50;;
14883;SDS011;7534;50.762;7.000;2022-09-27T02:12:15;3.60;;;2.53;;
14883;SDS011;7534;50.762;7.000;2022-09-27T02:15:05;3.90;;;2.53;;
14883;SDS011;7534;50.762;7.000;2022-09-27T02:17:39;3.57;;;2.53;;
14883;SDS011;7534;50.762;7.000;2022-09-27T02:26:22;3.07;;;2.40;;
14883;SDS011;7534;50.762;7.000;2022-09-27T02:29:03;3.63;;;2.40;;
14883;SDS011;7534;50.762;7.000;2022-09-27T02:31:48;3.83;;;2.47;;
14883;SDS011;7534;50.762;7.000;2022-09-27T02:34:20;3.97;;;2.40;;
14883;SDS011;7534;50.762;7.000;2022-09-27T02:36:51;3.03;;;2.53;;
14883;SDS011;7534;50.762;7.000;2022-09-27T02:39:17;4.23;;;2.60;;
14883;SDS011;7534;50.762;7.000;2022-09-27T02:41:44;3.70;;;2.30;;
14883;SDS011;7534;50.762;7.000;2022-09-27T02:44:10;2.43;;;2.20;;
14883;SDS011;7534;50.762;7.000;2022-09-27T02:49:59;3.53;;;2.63;;
14883;SDS011;7534;50.762;7.000;2022-09-27T02:53:10;3.23;;;2.43;;
14883;SDS011;7534;50.762;7.000;2022-09-27T02:59:05;2.57;;;2.37;;
14883;SDS011;7534;50.762;7.000;2022-09-27T03:02:31;2.53;;;2.23;;
14883;SDS011;7534;50.762;7.000;2022-09-27T03:05:23;4.40;;;2.50;;
14883;SDS011;7534;50.762;7.000;2022-09-27T03:07:56;5.03;;;2.40;;
14883;SDS011;7534;50.762;7.000;2022-09-27T03:10:23;2.50;;;2.20;;
14883;SDS011;7534;50.762;7.000;2022-09-27T03:12:52;2.30;;;2.10;;
14883;SDS011;7534;50.762;7.000;2022-09-27T03:15:18;2.73;;;2.23;;
14883;SDS011;7534;50.762;7.000;2022-09-27T03:17:44;3.77;;;2.13;;
14883;SDS011;7534;50.762;7.000;2022-09-27T03:20:10;2.97;;;1.87;;
14883;SDS011;7534;50.762;7.000;2022-09-27T03:22:36;3.50;;;1.80;;
14883;SDS011;7534;50.762;7.000;2022-09-27T03:25:04;2.60;;;2.10;;
14883;SDS011;7534;50.762;7.000;2022-09-27T03:27:30;2.13;;;1.60;;
14883;SDS011;7534;50.762;7.000;2022-09-27T03:29:56;2.10;;;1.70;;
14883;SDS011;7534;50.762;7.000;2022-09-27T03:32:23;2.13;;;1.50;;
14883;SDS011;7534;50.762;7.000;2022-09-27T03:34:50;2.67;;;1.47;;
14883;SDS011;7534;50.762;7.000;2022-09-27T03:37:15;1.80;;;1.30;;
14883;SDS011;7534;50.762;7.000;2022-09-27T03:39:41;2.23;;;1.40;;
14883;SDS011;7534;50.762;7.000;2022-09-27T03:42:07;3.80;;;1.30;;
14883;SDS011;7534;50.762;7.000;2022-09-27T03:44:32;1.43;;;1.30;;
14883;SDS011;7534;50.762;7.000;2022-09-27T03:46:58;1.37;;;1.17;;
14883;SDS011;7534;50.762;7.000;2022-09-27T03:49:24;1.43;;;1.13;;
14883;SDS011;7534;50.762;7.000;2022-09-27T03:51:50;2.53;;;1.40;;
14883;SDS011;7534;50.762;7.000;2022-09-27T03:54:15;2.23;;;1.20;;
14883;SDS011;7534;50.762;7.000;2022-09-27T03:56:41;2.73;;;1.40;;
14883;SDS011;7534;50.762;7.000;2022-09-27T03:59:07;1.27;;;1.17;;
14883;SDS011;7534;50.762;7.000;2022-09-27T04:01:32;1.33;;;1.23;;
14883;SDS011;7534;50.762;7.000;2022-09-27T04:04:00;1.77;;;1.47;;
14883;SDS011;7534;50.762;7.000;2022-09-27T04:06:26;4.67;;;1.50;;
14883;SDS011;7534;50.762;7.000;2022-09-27T04:08:52;1.80;;;1.60;;
14883;SDS011;7534;50.762;7.000;2022-09-27T04:11:18;5.33;;;1.70;;
14883;SDS011;7534;50.762;7.000;2022-09-27T04:13:43;6.80;;;2.00;;
14883;SDS011;7534;50.762;7.000;2022-09-27T04:16:11;2.43;;;1.90;;
14883;SDS011;7534;50.762;7.000;2022-09-27T04:18:36;2.60;;;2.00;;
14883;SDS011;7534;50.762;7.000;2022-09-27T04:21:02;2.10;;;1.90;;
14883;SDS011;7534;50.762;7.000;2022-09-27T04:23:28;3.23;;;2.00;;
14883;SDS011;7534;50.762;7.000;2022-09-27T04:25:54;3.90;;;1.90;;
14883;SDS011;7534;50.762;7.000;2022-09-27T04:28:19;3.27;;;2.00;;
14883;SDS011;7534;50.762;7.000;2022-09-27T04:30:45;2.83;;;1.80;;
14883;SDS011;7534;50.762;7.000;2022-09-27T04:33:12;4.47;;;2.10;;
14883;SDS011;7534;50.762;7.000;2022-09-27T04:35:38;1.87;;;1.70;;
14883;SDS011;7534;50.762;7.000;2022-09-27T04:38:22;4.77;;;2.30;;
14883;SDS011;7534;50.762;7.000;2022-09-27T04:40:49;2.90;;;1.83;;
14883;SDS011;7534;50.762;7.000;2022-09-27T04:43:15;3.73;;;1.90;;
14883;SDS011;7534;50.762;7.000;2022-09-27T04:45:42;3.17;;;1.63;;
14883;SDS011;7534;50.762;7.000;2022-09-27T04:48:08;3.63;;;1.70;;
14883;SDS011;7534;50.762;7.000;2022-09-27T04:50:34;2.10;;;1.90;;
14883;SDS011;7534;50.762;7.000;2022-09-27T04:53:00;4.20;;;1.73;;
14883;SDS011;7534;50.762;7.000;2022-09-27T04:55:26;1.90;;;1.57;;
14883;SDS011;7534;50.762;7.000;2022-09-27T04:57:51;2.00;;;1.90;;
14883;SDS011;7534;50.762;7.000;2022-09-27T05:00:17;4.03;;;1.87;;
14883;SDS011;7534;50.762;7.000;2022-09-27T05:02:44;4.67;;;1.90;;
14883;SDS011;7534;50.762;7.000;2022-09-27T05:05:12;2.37;;;2.00;;
14883;SDS011;7534;50.762;7.000;2022-09-27T05:07:38;2.30;;;2.10;;
14883;SDS011;7534;50.762;7.000;2022-09-27T05:10:05;4.47;;;2.20;;
14883;SDS011;7534;50.762;7.000;2022-09-27T05:12:33;3.53;;;2.13;;
14883;SDS011;7534;50.762;7.000;2022-09-27T05:14:58;3.13;;;2.70;;
14883;SDS011;7534;50.762;7.000;2022-09-27T05:17:24;3.53;;;2.30;;
14883;SDS011;7534;50.762;7.000;2022-09-27T05:19:50;2.70;;;2.10;;
14883;SDS011;7534;50.762;7.000;2022-09-27T05:22:16;3.10;;;2.33;;
14883;SDS011;7534;50.762;7.000;2022-09-27T05:24:42;2.60;;;2.33;;
14883;SDS011;7534;50.762;7.000;2022-09-27T05:27:14;3.47;;;2.30;;
14883;SDS011;7534;50.762;7.000;2022-09-27T05:29:44;3.33;;;2.37;;
14883;SDS011;7534;50.762;7.000;2022-09-27T05:32:11;3.97;;;2.27;;
14883;SDS011;7534;50.762;7.000;2022-09-27T05:34:37;3.30;;;2.00;;
14883;SDS011;7534;50.762;7.000;2022-09-27T05:37:03;3.63;;;2.47;;
14883;SDS011;7534;50.762;7.000;2022-09-27T05:39:29;2.73;;;2.10;;
14883;SDS011;7534;50.762;7.000;2022-09-27T05:41:55;5.87;;;2.47;;
14883;SDS011;7534;50.762;7.000;2022-09-27T05:44:21;5.37;;;2.70;;
14883;SDS011;7534;50.762;7.000;2022-09-27T05:46:47;2.40;;;2.13;;
14883;SDS011;7534;50.762;7.000;2022-09-27T05:49:13;4.20;;;2.20;;
14883;SDS011;7534;50.762;7.000;2022-09-27T05:51:39;2.37;;;2.10;;
14883;SDS011;7534;50.762;7.000;2022-09-27T05:54:06;3.73;;;2.10;;
14883;SDS011;7534;50.762;7.000;2022-09-27T05:56:31;3.63;;;2.50;;
14883;SDS011;7534;50.762;7.000;2022-09-27T05:58:57;2.47;;;2.20;;
14883;SDS011;7534;50.762;7.000;2022-09-27T06:01:25;3.43;;;2.40;;
14883;SDS011;7534;50.762;7.000;2022-09-27T06:03:51;4.50;;;2.10;;
14883;SDS011;7534;50.762;7.000;2022-09-27T06:06:19;2.30;;;2.10;;
14883;SDS011;7534;50.762;7.000;2022-09-27T06:08:47;2.50;;;1.90;;
14883;SDS011;7534;50.762;7.000;2022-09-27T06:11:13;2.73;;;2.00;;
14883;SDS011;7534;50.762;7.000;2022-09-27T06:13:39;2.53;;;2.10;;
14883;SDS011;7534;50.762;7.000;2022-09-27T06:16:06;3.73;;;2.30;;
14883;SDS011;7534;50.762;7.000;2022-09-27T06:18:35;3.40;;;2.30;;
14883;SDS011;7534;50.762;7.000;2022-09-27T06:21:01;3.40;;;1.90;;
14883;SDS011;7534;50.762;7.000;2022-09-27T06:23:29;2.87;;;1.80;;
14883;SDS011;7534;50.762;7.000;2022-09-27T06:26:02;2.70;;;1.77;;
14883;SDS011;7534;50.762;7.000;2022-09-27T06:28:32;1.90;;;1.70;;
14883;SDS011;7534;50.762;7.000;2022-09-27T06:31:01;3.30;;;1.80;;
14883;SDS011;7534;50.762;7.000;2022-09-27T06:33:31;3.27;;;1.90;;
14883;SDS011;7534;50.762;7.000;2022-09-27T06:35:59;1.90;;;1.70;;
14883;SDS011;7534;50.762;7.000;2022-09-27T06:38:27;2.63;;;1.53;;
14883;SDS011;7534;50.762;7.000;2022-09-27T06:40:53;2.07;;;1.43;;
14883;SDS011;7534;50.762;7.000;2022-09-27T06:43:22;1.63;;;1.30;;
14883;SDS011;7534;50.762;7.000;2022-09-27T06:45:51;1.93;;;1.10;;
14883;SDS011;7534;50.762;7.000;2022-09-27T06:48:17;3.20;;;1.10;;
14883;SDS011;7534;50.762;7.000;2022-09-27T06:50:44;1.70;;;0.80;;
14883;SDS011;7534;50.762;7.000;2022-09-27T06:53:12;2.30;;;1.30;;
14883;SDS011;7534;50.762;7.000;2022-09-27T06:55:41;2.53;;;1.40;;
14883;SDS011;7534;50.762;7.000;2022-09-27T06:58:08;2.33;;;1.20;;
14883;SDS011;7534;50.762;7.000;2022-09-27T07:00:53;2.30;;;1.60;;
14883;SDS011;7534;50.762;7.000;2022-09-27T07:03:20;2.17;;;1.50;;
14883;SDS011;7534;50.762;7.000;2022-09-27T07:05:57;2.47;;;1.40;;
14883;SDS011;7534;50.762;7.000;2022-09-27T07:08:26;1.97;;;1.43;;
14883;SDS011;7534;50.762;7.000;2022-09-27T07:10:53;1.43;;;1.00;;
14883;SDS011;7534;50.762;7.000;2022-09-27T07:13:25;1.20;;;1.20;;
14883;SDS011;7534;50.762;7.000;2022-09-27T07:15:58;1.63;;;1.30;;
14883;SDS011;7534;50.762;7.000;2022-09-27T07:18:26;1.20;;;1.10;;
14883;SDS011;7534;50.762;7.000;2022-09-27T07:20:53;1.73;;;1.30;;
14883;SDS011;7534;50.762;7.000;2022-09-27T07:23:19;2.03;;;1.23;;
14883;SDS011;7534;50.762;7.000;2022-09-27T07:25:45;1.60;;;1.17;;
14883;SDS011;7534;50.762;7.000;2022-09-27T07:28:15;2.87;;;1.30;;
14883;SDS011;7534;50.762;7.000;2022-09-27T07:30:43;2.40;;;1.30;;
14883;SDS011;7534;50.762;7.000;2022-09-27T07:33:10;1.30;;;1.20;;
14883;SDS011;7534;50.762;7.000;2022-09-27T07:35:40;1.47;;;1.37;;
14883;SDS011;7534;50.762;7.000;2022-09-27T07:38:08;1.27;;;1.17;;
14883;SDS011;7534;50.762;7.000;2022-09-27T07:40:39;1.83;;;1.40;;
14883;SDS011;7534;50.762;7.000;2022-09-27T07:43:06;2.40;;;1.33;;
14883;SDS011;7534;50.762;7.000;2022-09-27T07:45:33;4.00;;;1.13;;
14883;SDS011;7534;50.762;7.000;2022-09-27T07:48:02;1.67;;;1.00;;
14883;SDS011;7534;50.762;7.000;2022-09-27T07:50:30;2.53;;;1.20;;
14883;SDS011;7534;50.762;7.000;2022-09-27T07:52:56;1.33;;;1.03;;
14883;SDS011;7534;50.762;7.000;2022-09-27T07:55:22;1.30;;;0.80;;
14883;SDS011;7534;50.762;7.000;2022-09-27T07:57:48;2.03;;;1.00;;
14883;SDS011;7534;50.762;7.000;2022-09-27T08:00:15;1.43;;;0.90;;
14883;SDS011;7534;50.762;7.000;2022-09-27T08:02:44;1.10;;;1.00;;
14883;SDS011;7534;50.762;7.000;2022-09-27T08:05:10;1.50;;;1.10;;
14883;SDS011;7534;50.762;7.000;2022-09-27T08:07:37;1.23;;;1.13;;
14883;SDS011;7534;50.762;7.000;2022-09-27T08:10:05;2.60;;;1.90;;
14883;SDS011;7534;50.762;7.000;2022-09-27T08:12:32;2.47;;;1.90;;
14883;SDS011;7534;50.762;7.000;2022-09-27T08:14:58;1.67;;;1.57;;
14883;SDS011;7534;50.762;7.000;2022-09-27T08:17:29;2.33;;;1.23;;
14883;SDS011;7534;50.762;7.000;2022-09-27T08:19:56;1.67;;;1.20;;
14883;SDS011;7534;50.762;7.000;2022-09-27T08:22:22;1.80;;;1.10;;
14883;SDS011;7534;50.762;7.000;2022-09-27T08:24:47;1.90;;;1.40;;
14883;SDS011;7534;50.762;7.000;2022-09-27T08:27:14;3.07;;;1.70;;
14883;SDS011;7534;50.762;7.000;2022-09-27T08:29:40;2.80;;;2.60;;
14883;SDS011;7534;50.762;7.000;2022-09-27T08:32:07;3.30;;;3.00;;
14883;SDS011;7534;50.762;7.000;2022-09-27T08:34:34;1.20;;;1.20;;
14883;SDS011;7534;50.762;7.000;2022-09-27T08:36:59;1.60;;;1.50;;
14883;SDS011;7534;50.762;7.000;2022-09-27T08:39:26;1.30;;;1.20;;
14883;SDS011;7534;50.762;7.000;2022-09-27T08:41:53;2.20;;;1.03;;
14883;SDS011;7534;50.762;7.000;2022-09-27T08:47:50;0.80;;;0.80;;
14883;SDS011;7534;50.762;7.000;2022-09-27T08:50:25;0.80;;;0.80;;
14883;SDS011;7534;50.762;7.000;2022-09-27T08:52:59;0.83;;;0.83;;
14883;SDS011;7534;50.762;7.000;2022-09-27T08:55:46;0.83;;;0.83;;
14883;SDS011;7534;50.762;7.000;2022-09-27T09:00:50;0.70;;;0.70;;
14883;SDS011;7534;50.762;7.000;2022-09-27T09:03:21;1.73;;;0.80;;
14883;SDS011;7534;50.762;7.000;2022-09-27T09:15:11;0.97;;;0.90;;
14883;SDS011;7534;50.762;7.000;2022-09-27T09:17:54;0.70;;;0.70;;
14883;SDS011;7534;50.762;7.000;2022-09-27T09:23:57;1.60;;;0.90;;
14883;SDS011;7534;50.762;7.000;2022-09-27T09:30:00;1.17;;;1.07;;
14883;SDS011;7534;50.762;7.000;2022-09-27T09:35:57;1.20;;;1.00;;
14883;SDS011;7534;50.762;7.000;2022-09-27T09:38:35;1.17;;;1.00;;
14883;SDS011;7534;50.762;7.000;2022-09-27T09:41:11;0.73;;;0.70;;
14883;SDS011;7534;50.762;7.000;2022-09-27T09:44:04;1.20;;;1.00;;
14883;SDS011;7534;50.762;7.000;2022-09-27T09:46:46;0.93;;;0.90;;
14883;SDS011;7534;50.762;7.000;2022-09-27T09:51:58;1.23;;;1.00;;
14883;SDS011;7534;50.762;7.000;2022-09-27T09:54:35;1.13;;;1.08;;
14883;SDS011;7534;50.762;7.000;2022-09-27T09:57:15;0.82;;;0.82;;
14883;SDS011;7534;50.762;7.000;2022-09-27T10:00:15;1.23;;;1.00;;
14883;SDS011;7534;50.762;7.000;2022-09-27T10:02:43;1.40;;;0.90;;
14883;SDS011;7534;50.762;7.000;2022-09-27T10:05:14;1.20;;;1.00;;
14883;SDS011;7534;50.762;7.000;2022-09-27T10:07:48;1.10;;;1.00;;
14883;SDS011;7534;50.762;7.000;2022-09-27T10:10:19;1.37;;;1.13;;
14883;SDS011;7534;50.762;7.000;2022-09-27T10:12:47;1.00;;;1.00;;
14883;SDS011;7534;50.762;7.000;2022-09-27T10:15:34;3.07;;;1.10;;
14883;SDS011;7534;50.762;7.000;2022-09-27T10:18:03;2.23;;;1.03;;
14883;SDS011;7534;50.762;7.000;2022-09-27T10:20:54;1.80;;;1.00;;
14883;SDS011;7534;50.762;7.000;2022-09-27T10:23:32;0.80;;;0.80;;
14883;SDS011;7534;50.762;7.000;2022-09-27T10:26:04;1.40;;;1.07;;
14883;SDS011;7534;50.762;7.000;2022-09-27T10:28:45;1.20;;;1.10;;
14883;SDS011;7534;50.762;7.000;2022-09-27T10:31:16;2.50;;;1.20;;
14883;SDS011;7534;50.762;7.000;2022-09-27T10:34:26;1.00;;;0.90;;
14883;SDS011;7534;50.762;7.000;2022-09-27T12:14:22;1.83;;;1.40;;
14883;SDS011;7534;50.762;7.000;2022-09-27T12:17:05;2.73;;;1.60;;
14883;SDS011;7534;50.762;7.000;2022-09-27T12:19:41;1.87;;;1.40;;
14883;SDS011;7534;50.762;7.000;2022-09-27T12:22:17;2.00;;;1.50;;
14883;SDS011;7534;50.762;7.000;2022-09-27T12:24:58;2.03;;;1.70;;
14883;SDS011;7534;50.762;7.000;2022-09-27T12:30:10;1.97;;;1.33;;
14883;SDS011;7534;50.762;7.000;2022-09-27T12:35:38;3.33;;;1.50;;
14883;SDS011;7534;50.762;7.000;2022-09-27T12:40:52;1.90;;;1.30;;
14883;SDS011;7534;50.762;7.000;2022-09-27T12:43:27;1.53;;;1.40;;
14883;SDS011;7534;50.762;7.000;2022-09-27T12:45:59;1.73;;;1.43;;
14883;SDS011;7534;50.762;7.000;2022-09-27T12:52:21;1.97;;;1.50;;
14883;SDS011;7534;50.762;7.000;2022-09-27T12:55:09;1.90;;;1.40;;
14883;SDS011;7534;50.762;7.000;2022-09-27T13:12:51;1.90;;;1.30;;
14883;SDS011;7534;50.762;7.000;2022-09-27T13:17:53;1.53;;;1.43;;
14883;SDS011;7534;50.762;7.000;2022-09-27T13:23:08;1.40;;;1.20;;
14883;SDS011;7534;50.762;7.000;2022-09-27T13:25:50;2.03;;;1.20;;
14883;SDS011;7534;50.762;7.000;2022-09-27T13:33:41;3.30;;;1.20;;
14883;SDS011;7534;50.762;7.000;2022-09-27T13:38:52;1.00;;;1.00;;
14883;SDS011;7534;50.762;7.000;2022-09-27T13:41:25;2.43;;;1.00;;
14883;SDS011;7534;50.762;7.000;2022-09-27T13:53:11;1.00;;;0.90;;
14883;SDS011;7534;50.762;7.000;2022-09-27T13:55:49;1.20;;;0.80;;
14883;SDS011;7534;50.762;7.000;2022-09-27T13:58:31;1.88;;;1.10;;
14883;SDS011;7534;50.762;7.000;2022-09-27T14:04:04;0.70;;;0.70;;
14883;SDS011;7534;50.762;7.000;2022-09-27T14:06:42;1.03;;;0.80;;
14883;SDS011;7534;50.762;7.000;2022-09-27T14:09:20;1.50;;;0.80;;
14883;SDS011;7534;50.762;7.000;2022-09-27T14:12:50;0.87;;;0.70;;
14883;SDS011;7534;50.762;7.000;2022-09-27T14:15:00;1.67;;;0.97;;
14883;SDS011;7534;50.762;7.000;2022-09-27T14:17:28;2.50;;;0.80;;
14883;SDS011;7534;50.762;7.000;2022-09-27T14:19:57;2.13;;;1.20;;
14883;SDS011;7534;50.762;7.000;2022-09-27T14:22:23;1.67;;;1.00;;
14883;SDS011;7534;50.762;7.000;2022-09-27T14:24:50;1.47;;;0.83;;
14883;SDS011;7534;50.762;7.000;2022-09-27T14:27:25;1.57;;;1.13;;
14883;SDS011;7534;50.762;7.000;2022-09-27T14:29:54;2.13;;;0.90;;
14883;SDS011;7534;50.762;7.000;2022-09-27T14:38:28;1.10;;;1.00;;
14883;SDS011;7534;50.762;7.000;2022-09-27T14:40:57;0.83;;;0.80;;
14883;SDS011;7534;50.762;7.000;2022-09-27T14:43:26;0.97;;;0.80;;
14883;SDS011;7534;50.762;7.000;2022-09-27T14:45:58;1.77;;;1.00;;
14883;SDS011;7534;50.762;7.000;2022-09-27T14:48:30;2.37;;;0.93;;
14883;SDS011;7534;50.762;7.000;2022-09-27T14:53:41;2.80;;;0.93;;
14883;SDS011;7534;50.762;7.000;2022-09-27T14:56:15;3.37;;;1.43;;
14883;SDS011;7534;50.762;7.000;2022-09-27T14:58:46;2.20;;;1.20;;
14883;SDS011;7534;50.762;7.000;2022-09-27T15:01:18;1.53;;;1.30;;
14883;SDS011;7534;50.762;7.000;2022-09-27T15:03:45;2.10;;;1.20;;
14883;SDS011;7534;50.762;7.000;2022-09-27T15:06:16;3.50;;;1.00;;
14883;SDS011;7534;50.762;7.000;2022-09-27T15:08:44;1.60;;;1.00;;
14883;SDS011;7534;50.762;7.000;2022-09-27T15:11:13;3.03;;;1.30;;
14883;SDS011;7534;50.762;7.000;2022-09-27T15:13:41;2.53;;;1.20;;
14883;SDS011;7534;50.762;7.000;2022-09-27T15:16:12;1.93;;;1.00;;
14883;SDS011;7534;50.762;7.000;2022-09-27T15:18:44;1.97;;;1.10;;
14883;SDS011;7534;50.762;7.000;2022-09-27T15:21:36;2.10;;;1.40;;
14883;SDS011;7534;50.762;7.000;2022-09-27T15:24:02;2.50;;;1.20;;
14883;SDS011;7534;50.762;7.000;2022-09-27T15:26:43;3.40;;;1.37;;
14883;SDS011;7534;50.762;7.000;2022-09-27T15:29:18;2.43;;;1.23;;
14883;SDS011;7534;50.762;7.000;2022-09-27T15:31:57;1.50;;;1.00;;
14883;SDS011;7534;50.762;7.000;2022-09-27T15:34:34;1.90;;;0.93;;
14883;SDS011;7534;50.762;7.000;2022-09-27T15:37:26;4.50;;;2.93;;
14883;SDS011;7534;50.762;7.000;2022-09-27T15:42:54;2.50;;;1.00;;
14883;SDS011;7534;50.762;7.000;2022-09-27T15:45:31;1.07;;;1.00;;
14883;SDS011;7534;50.762;7.000;2022-09-27T15:48:12;2.73;;;1.40;;
14883;SDS011;7534;50.762;7.000;2022-09-27T15:50:41;1.40;;;0.93;;
14883;SDS011;7534;50.762;7.000;2022-09-27T15:53:10;2.47;;;1.20;;
14883;SDS011;7534;50.762;7.000;2022-09-27T15:55:43;1.60;;;1.20;;
14883;SDS011;7534;50.762;7.000;2022-09-27T15:58:14;1.50;;;1.40;;
14883;SDS011;7534;50.762;7.000;2022-09-27T16:00:51;2.77;;;1.30;;
14883;SDS011;7534;50.762;7.000;2022-09-27T16:03:21;1.70;;;1.10;;
14883;SDS011;7534;50.762;7.000;2022-09-27T16:05:48;1.47;;;1.27;;
14883;SDS011;7534;50.762;7.000;2022-09-27T16:08:14;1.47;;;1.30;;
14883;SDS011;7534;50.762;7.000;2022-09-27T16:10:41;2.83;;;1.30;;
14883;SDS011;7534;50.762;7.000;2022-09-27T16:13:25;1.30;;;1.20;;
14883;SDS011;7534;50.762;7.000;2022-09-27T16:15:51;1.83;;;1.30;;
14883;SDS011;7534;50.762;7.000;2022-09-27T16:18:17;1.43;;;1.33;;
14883;SDS011;7534;50.762;7.000;2022-09-27T16:20:43;1.43;;;1.20;;
14883;SDS011;7534;50.762;7.000;2022-09-27T16:23:09;1.40;;;1.30;;
14883;SDS011;7534;50.762;7.000;2022-09-27T16:25:34;2.03;;;1.40;;
14883;SDS011;7534;50.762;7.000;2022-09-27T16:28:00;2.20;;;1.47;;
14883;SDS011;7534;50.762;7.000;2022-09-27T16:30:28;2.50;;;1.23;;
14883;SDS011;7534;50.762;7.000;2022-09-27T16:32:55;2.43;;;1.30;;
14883;SDS011;7534;50.762;7.000;2022-09-27T16:35:22;1.53;;;1.23;;
14883;SDS011;7534;50.762;7.000;2022-09-27T16:37:49;1.63;;;1.30;;
14883;SDS011;7534;50.762;7.000;2022-09-27T16:40:15;2.47;;;1.40;;
14883;SDS011;7534;50.762;7.000;2022-09-27T16:42:42;1.53;;;1.43;;
14883;SDS011;7534;50.762;7.000;2022-09-27T16:45:11;2.27;;;1.57;;
14883;SDS011;7534;50.762;7.000;2022-09-27T16:47:40;2.17;;;1.50;;
14883;SDS011;7534;50.762;7.000;2022-09-27T16:50:09;3.10;;;1.77;;
14883;SDS011;7534;50.762;7.000;2022-09-27T16:52:56;4.87;;;3.27;;
14883;SDS011;7534;50.762;7.000;2022-09-27T16:55:23;3.10;;;2.80;;
14883;SDS011;7534;50.762;7.000;2022-09-27T16:57:52;4.63;;;4.03;;
14883;SDS011;7534;50.762;7.000;2022-09-27T17:00:22;3.50;;;3.17;;
14883;SDS011;7534;50.762;7.000;2022-09-27T17:02:48;2.80;;;2.50;;
14883;SDS011;7534;50.762;7.000;2022-09-27T17:05:14;2.07;;;1.90;;
14883;SDS011;7534;50.762;7.000;2022-09-27T17:07:40;3.90;;;2.50;;
14883;SDS011;7534;50.762;7.000;2022-09-27T17:10:07;4.10;;;3.10;;
14883;SDS011;7534;50.762;7.000;2022-09-27T17:12:33;3.23;;;2.80;;
14883;SDS011;7534;50.762;7.000;2022-09-27T17:14:59;3.87;;;2.60;;
14883;SDS011;7534;50.762;7.000;2022-09-27T17:17:25;4.70;;;2.50;;
14883;SDS011;7534;50.762;7.000;2022-09-27T17:19:51;3.23;;;2.40;;
14883;SDS011;7534;50.762;7.000;2022-09-27T17:22:16;4.37;;;2.07;;
14883;SDS011;7534;50.762;7.000;2022-09-27T17:24:42;3.30;;;2.60;;
14883;SDS011;7534;50.762;7.000;2022-09-27T17:27:08;4.07;;;2.60;;
14883;SDS011;7534;50.762;7.000;2022-09-27T17:29:33;5.07;;;3.60;;
14883;SDS011;7534;50.762;7.000;2022-09-27T17:32:02;5.50;;;2.77;;
14883;SDS011;7534;50.762;7.000;2022-09-27T17:34:32;3.90;;;2.70;;
14883;SDS011;7534;50.762;7.000;2022-09-27T17:36:59;3.63;;;2.60;;
14883;SDS011;7534;50.762;7.000;2022-09-27T17:39:25;4.13;;;3.13;;
14883;SDS011;7534;50.762;7.000;2022-09-27T17:41:51;3.27;;;2.43;;
14883;SDS011;7534;50.762;7.000;2022-09-27T17:44:17;2.63;;;2.40;;
14883;SDS011;7534;50.762;7.000;2022-09-27T17:46:43;5.07;;;2.17;;
14883;SDS011;7534;50.762;7.000;2022-09-27T17:49:11;2.50;;;2.30;;
14883;SDS011;7534;50.762;7.000;2022-09-27T17:51:57;4.27;;;2.57;;
14883;SDS011;7534;50.762;7.000;2022-09-27T17:54:23;2.43;;;2.23;;
14883;SDS011;7534;50.762;7.000;2022-09-27T17:56:52;2.77;;;2.40;;
14883;SDS011;7534;50.762;7.000;2022-09-27T17:59:20;2.30;;;2.10;;
14883;SDS011;7534;50.762;7.000;2022-09-27T18:01:46;5.53;;;2.03;;
14883;SDS011;7534;50.762;7.000;2022-09-27T18:04:14;3.13;;;2.30;;
14883;SDS011;7534;50.762;7.000;2022-09-27T18:06:44;3.00;;;2.30;;
14883;SDS011;7534;50.762;7.000;2022-09-27T18:09:12;2.90;;;2.37;;
14883;SDS011;7534;50.762;7.000;2022-09-27T18:11:41;4.43;;;2.57;;
14883;SDS011;7534;50.762;7.000;2022-09-27T18:14:09;3.03;;;2.27;;
14883;SDS011;7534;50.762;7.000;2022-09-27T18:16:39;3.90;;;2.30;;
14883;SDS011;7534;50.762;7.000;2022-09-27T18:19:07;5.07;;;2.40;;
14883;SDS011;7534;50.762;7.000;2022-09-27T18:21:37;3.27;;;2.50;;
14883;SDS011;7534;50.762;7.000;2022-09-27T18:24:03;3.73;;;2.40;;
14883;SDS011;7534;50.762;7.000;2022-09-27T18:26:30;2.77;;;2.30;;
14883;SDS011;7534;50.762;7.000;2022-09-27T18:29:01;2.60;;;2.27;;
14883;SDS011;7534;50.762;7.000;2022-09-27T18:31:34;3.00;;;2.20;;
14883;SDS011;7534;50.762;7.000;2022-09-27T18:34:00;3.27;;;2.50;;
14883;SDS011;7534;50.762;7.000;2022-09-27T18:36:27;4.33;;;2.57;;
14883;SDS011;7534;50.762;7.000;2022-09-27T18:39:00;3.13;;;2.13;;
14883;SDS011;7534;50.762;7.000;2022-09-27T18:41:30;3.07;;;2.33;;
14883;SDS011;7534;50.762;7.000;2022-09-27T18:43:58;4.53;;;2.50;;
14883;SDS011;7534;50.762;7.000;2022-09-27T18:46:28;3.20;;;2.23;;
14883;SDS011;7534;50.762;7.000;2022-09-27T18:48:58;2.80;;;2.20;;
14883;SDS011;7534;50.762;7.000;2022-09-27T18:51:26;3.80;;;2.70;;
14883;SDS011;7534;50.762;7.000;2022-09-27T18:53:57;3.43;;;2.70;;
14883;SDS011;7534;50.762;7.000;2022-09-27T18:56:26;3.10;;;2.80;;
14883;SDS011;7534;50.762;7.000;2022-09-27T18:58:53;4.73;;;2.80;;
14883;SDS011;7534;50.762;7.000;2022-09-27T19:01:20;3.50;;;3.20;;
14883;SDS011;7534;50.762;7.000;2022-09-27T19:03:47;4.57;;;3.83;;
14883;SDS011;7534;50.762;7.000;2022-09-27T19:06:15;5.03;;;3.33;;
14883;SDS011;7534;50.762;7.000;2022-09-27T19:08:44;4.63;;;3.77;;